createdAt,value
2023-11-18T00:01:38.274Z,1.45
2023-11-18T00:04:17.318Z,1.17
2023-11-18T00:06:53.855Z,1.90
2023-11-18T00:09:29.721Z,1.75
2023-11-18T00:12:07.841Z,2.25
2023-11-18T00:14:44.022Z,1.50
2023-11-18T00:19:57.552Z,1.70
2023-11-18T00:22:33.452Z,2.22
2023-11-18T00:25:10.615Z,1.25
2023-11-18T00:27:47.352Z,1.92
2023-11-18T00:30:25.066Z,2.58
2023-11-18T00:33:01.114Z,2.42
2023-11-18T00:35:37.565Z,2.40
2023-11-18T00:38:13.473Z,2.90
2023-11-18T00:40:49.532Z,2.53
2023-11-18T00:43:25.464Z,2.42
2023-11-18T00:46:02.696Z,3.10
2023-11-18T00:48:38.637Z,2.50
2023-11-18T00:51:14.498Z,3.08
2023-11-18T00:53:50.475Z,3.67
2023-11-18T00:56:26.402Z,3.22
2023-11-18T00:59:02.911Z,3.47
2023-11-18T01:01:41.727Z,2.67
2023-11-18T01:04:17.693Z,3.10
2023-11-18T01:06:53.542Z,3.30
2023-11-18T01:09:29.538Z,4.03
2023-11-18T01:12:08.413Z,3.38
2023-11-18T01:14:45.237Z,3.35
2023-11-18T01:17:23.182Z,4.10
2023-11-18T01:19:59.308Z,3.15
2023-11-18T01:25:12.862Z,3.78
2023-11-18T01:27:48.061Z,3.53
2023-11-18T01:30:25.125Z,3.92
2023-11-18T01:33:04.952Z,4.10
2023-11-18T01:35:40.968Z,3.55
2023-11-18T01:38:16.850Z,4.13
2023-11-18T01:40:54.711Z,3.72
2023-11-18T01:43:33.147Z,3.50
2023-11-18T01:46:12.011Z,3.40
2023-11-18T01:48:47.978Z,3.45
2023-11-18T01:51:24.785Z,3.67
2023-11-18T01:54:07.490Z,2.95
2023-11-18T01:56:44.222Z,4.20
2023-11-18T01:59:21.997Z,4.13
2023-11-18T02:02:00.920Z,3.67
2023-11-18T02:04:38.092Z,3.92
2023-11-18T02:07:16.319Z,3.67
2023-11-18T02:09:52.823Z,4.15
2023-11-18T02:12:31.357Z,3.85
2023-11-18T02:15:11.543Z,3.42
2023-11-18T02:17:48.643Z,3.95
2023-11-18T02:20:25.729Z,3.88
2023-11-18T02:23:03.800Z,3.92
2023-11-18T02:25:46.660Z,3.78
2023-11-18T02:28:23.460Z,3.88
2023-11-18T02:31:17.661Z,4.75
2023-11-18T02:34:13.886Z,3.67
2023-11-18T02:36:52.967Z,4.10
2023-11-18T02:39:39.890Z,3.83
2023-11-18T02:42:17.680Z,3.15
2023-11-18T02:45:00.803Z,3.65
2023-11-18T02:47:38.437Z,3.88
2023-11-18T02:52:50.927Z,3.95
2023-11-18T02:55:27.312Z,3.58
2023-11-18T02:58:06.631Z,4.07
2023-11-18T03:00:44.447Z,4.22
2023-11-18T03:03:21.638Z,3.88
2023-11-18T03:05:57.540Z,3.90
2023-11-18T03:08:33.397Z,4.10
2023-11-18T03:11:10.445Z,4.60
2023-11-18T03:13:46.413Z,3.78
2023-11-18T03:16:22.441Z,3.72
2023-11-18T03:19:00.251Z,4.20
2023-11-18T03:21:40.201Z,4.32
2023-11-18T03:24:17.784Z,3.90
2023-11-18T03:26:53.666Z,4.00
2023-11-18T03:29:30.608Z,4.35
2023-11-18T03:32:06.891Z,3.72
2023-11-18T03:34:43.194Z,4.45
2023-11-18T03:39:54.847Z,3.75
2023-11-18T03:42:31.220Z,4.88
2023-11-18T03:45:07.657Z,4.68
2023-11-18T03:47:43.525Z,4.75
2023-11-18T03:50:19.973Z,5.03
2023-11-18T03:52:56.553Z,5.00
2023-11-18T03:55:32.445Z,4.88
2023-11-18T03:58:10.353Z,4.47
2023-11-18T04:00:46.416Z,5.38
2023-11-18T04:03:22.283Z,4.95
2023-11-18T04:05:58.084Z,4.43
2023-11-18T04:08:35.885Z,4.70
2023-11-18T04:11:11.816Z,4.68
2023-11-18T04:13:48.922Z,4.10
2023-11-18T04:16:24.890Z,4.40
2023-11-18T04:19:01.019Z,5.32
2023-11-18T04:21:38.151Z,4.88
2023-11-18T04:24:14.173Z,4.88
2023-11-18T04:26:50.601Z,4.75
2023-11-18T04:29:27.962Z,4.80
2023-11-18T04:32:03.959Z,4.90
2023-11-18T04:34:40.615Z,5.07
2023-11-18T04:37:16.583Z,5.32
2023-11-18T04:39:52.452Z,4.65
2023-11-18T04:42:30.937Z,4.43
2023-11-18T04:45:07.226Z,4.28
2023-11-18T04:47:44.781Z,5.10
2023-11-18T04:50:20.917Z,4.60
2023-11-18T04:52:57.132Z,4.38
2023-11-18T04:55:33.037Z,4.55
2023-11-18T04:58:10.646Z,5.20
2023-11-18T05:00:46.497Z,4.90
2023-11-18T05:03:23.018Z,5.18
2023-11-18T05:05:59.114Z,5.22
2023-11-18T05:08:37.614Z,5.05
2023-11-18T05:11:14.338Z,4.47
2023-11-18T05:13:50.693Z,4.75
2023-11-18T05:16:26.706Z,5.20
2023-11-18T05:19:04.822Z,5.38
2023-11-18T05:21:41.134Z,4.78
2023-11-18T05:24:17.004Z,5.35
2023-11-18T05:26:53.901Z,4.93
2023-11-18T05:29:29.847Z,4.65
2023-11-18T05:32:05.892Z,5.30
2023-11-18T05:34:42.232Z,4.95
2023-11-18T05:37:19.483Z,4.40
2023-11-18T05:40:00.776Z,5.20
2023-11-18T05:42:43.186Z,4.50
2023-11-18T05:45:29.722Z,5.07
2023-11-18T05:48:07.512Z,4.57
2023-11-18T05:50:44.742Z,4.38
2023-11-18T05:53:22.989Z,5.43
2023-11-18T05:55:59.472Z,4.80
2023-11-18T05:58:35.424Z,4.65
2023-11-18T06:01:12.457Z,4.80
2023-11-18T06:03:49.198Z,5.32
2023-11-18T06:06:25.275Z,5.40
2023-11-18T06:09:06.174Z,4.53
2023-11-18T06:11:42.606Z,4.93
2023-11-18T06:14:18.535Z,4.63
2023-11-18T06:16:55.057Z,5.57
2023-11-18T06:19:31.087Z,4.88
2023-11-18T06:22:07.280Z,5.28
2023-11-18T06:24:44.197Z,5.15
2023-11-18T06:27:24.410Z,5.35
2023-11-18T06:30:00.368Z,5.20
2023-11-18T06:32:40.236Z,4.93
2023-11-18T06:35:16.304Z,4.68
2023-11-18T06:37:53.230Z,4.57
2023-11-18T06:40:29.273Z,5.00
2023-11-18T06:43:12.290Z,4.40
2023-11-18T06:45:48.286Z,4.40
2023-11-18T06:48:24.271Z,4.75
2023-11-18T06:51:00.505Z,3.75
2023-11-18T06:53:38.860Z,4.03
2023-11-18T06:56:14.928Z,3.80
2023-11-18T07:01:26.619Z,3.53
2023-11-18T07:04:03.919Z,4.40
2023-11-18T07:06:42.369Z,4.40
2023-11-18T07:09:19.605Z,4.20
2023-11-18T07:11:57.343Z,3.90
2023-11-18T07:14:33.264Z,3.90
2023-11-18T07:17:09.951Z,3.05
2023-11-18T07:19:46.220Z,3.35
2023-11-18T07:22:22.138Z,3.72
2023-11-18T07:25:01.568Z,3.95
2023-11-18T07:27:40.189Z,3.72
2023-11-18T07:30:16.334Z,2.85
2023-11-18T07:35:28.383Z,3.00
2023-11-18T07:40:43.708Z,3.40
2023-11-18T07:43:23.099Z,2.83
2023-11-18T07:45:59.140Z,2.95
2023-11-18T07:48:36.637Z,2.95
2023-11-18T07:51:12.701Z,2.85
2023-11-18T07:53:49.085Z,3.22
2023-11-18T07:56:25.380Z,2.47
2023-11-18T07:59:01.412Z,2.53
2023-11-18T08:04:15.014Z,2.30
2023-11-18T08:06:51.135Z,2.00
2023-11-18T08:12:02.946Z,2.60
2023-11-18T08:14:39.096Z,2.80
2023-11-18T08:17:15.081Z,3.03
2023-11-18T08:22:27.165Z,2.60
2023-11-18T08:25:03.418Z,2.65
2023-11-18T08:27:39.500Z,2.58
2023-11-18T08:32:51.707Z,2.50
2023-11-18T08:35:27.712Z,3.25
2023-11-18T08:40:41.719Z,2.60
2023-11-18T08:43:18.242Z,2.53
2023-11-18T08:45:54.678Z,2.70
2023-11-18T08:48:32.551Z,2.40
2023-11-18T08:51:10.680Z,2.78
2023-11-18T08:53:49.280Z,2.42
2023-11-18T08:56:35.980Z,2.85
2023-11-18T08:59:12.630Z,3.13
2023-11-18T09:01:50.456Z,2.70
2023-11-18T09:04:29.789Z,2.85
2023-11-18T09:07:06.106Z,2.50
2023-11-18T09:09:43.021Z,2.38
2023-11-18T09:12:20.667Z,2.35
2023-11-18T09:14:57.061Z,2.78
2023-11-18T09:17:33.038Z,2.35
2023-11-18T09:20:12.577Z,2.08
2023-11-18T09:22:48.979Z,2.95
2023-11-18T09:25:24.913Z,2.53
2023-11-18T09:30:50.662Z,2.75
2023-11-18T09:33:34.277Z,2.70
2023-11-18T09:36:13.975Z,1.33
2023-11-18T09:38:51.004Z,1.70
2023-11-18T09:41:29.107Z,1.98
2023-11-18T09:44:05.442Z,2.22
2023-11-18T09:46:45.833Z,2.20
2023-11-18T09:49:35.442Z,2.20
2023-11-18T09:52:14.691Z,2.45
2023-11-18T09:55:16.405Z,2.13
2023-11-18T10:00:42.985Z,1.73
2023-11-18T10:03:19.164Z,1.48
2023-11-18T10:05:57.336Z,1.60
2023-11-18T10:08:33.665Z,1.38
2023-11-18T10:11:15.020Z,1.13
2023-11-18T10:13:51.264Z,1.58
2023-11-18T10:16:32.185Z,1.10
2023-11-18T10:19:10.183Z,1.20
2023-11-18T10:21:50.849Z,1.20
2023-11-18T10:24:27.471Z,1.40
2023-11-18T10:27:03.478Z,1.15
2023-11-18T10:32:22.898Z,0.90
2023-11-18T10:35:04.628Z,0.82
2023-11-18T10:37:45.044Z,1.35
2023-11-18T10:40:22.844Z,1.00
2023-11-18T10:42:58.786Z,1.00
2023-11-18T10:45:34.689Z,0.50
2023-11-18T10:48:10.809Z,0.75
2023-11-18T10:50:54.058Z,0.70
2023-11-18T10:53:30.207Z,0.75
2023-11-18T10:56:06.988Z,0.95
2023-11-18T10:58:43.114Z,0.65
2023-11-18T11:01:19.330Z,0.40
2023-11-18T11:04:02.669Z,0.70
2023-11-18T11:06:53.463Z,0.60
2023-11-18T11:09:37.146Z,0.60
2023-11-18T11:12:18.220Z,0.40
2023-11-18T11:15:01.246Z,0.70
2023-11-18T11:17:41.345Z,0.50
2023-11-18T11:20:26.972Z,0.50
2023-11-18T11:23:34.106Z,0.88
2023-11-18T11:26:32.250Z,0.68
2023-11-18T11:29:48.797Z,0.90
2023-11-18T11:32:39.828Z,0.60
2023-11-18T11:35:23.258Z,0.60
2023-11-18T11:38:05.292Z,0.88
2023-11-18T11:40:43.141Z,0.70
2023-11-18T11:43:23.021Z,0.35
2023-11-18T11:45:59.436Z,0.47
2023-11-18T11:48:37.596Z,0.30
2023-11-18T11:51:33.018Z,0.60
2023-11-18T11:54:20.239Z,0.60
2023-11-18T11:57:00.989Z,0.73
2023-11-18T11:59:48.118Z,0.50
2023-11-18T12:02:30.828Z,0.22
2023-11-18T12:05:08.586Z,0.45
2023-11-18T12:07:47.818Z,0.52
2023-11-18T12:10:24.342Z,0.47
2023-11-18T12:13:18.349Z,0.43
2023-11-18T12:15:59.300Z,0.43
2023-11-18T12:18:38.370Z,0.40
2023-11-18T12:21:24.608Z,0.40
2023-11-18T12:24:19.978Z,0.50
2023-11-18T12:26:56.267Z,0.73
2023-11-18T12:29:36.646Z,0.50
2023-11-18T12:32:14.184Z,0.40
2023-11-18T12:35:00.904Z,0.60
2023-11-18T12:37:54.806Z,0.43
2023-11-18T12:40:51.750Z,0.73
2023-11-18T12:43:53.169Z,0.40
2023-11-18T12:46:54.628Z,0.55
2023-11-18T12:49:31.732Z,0.40
2023-11-18T12:52:09.621Z,0.43
2023-11-18T12:54:52.031Z,0.40
2023-11-18T12:57:33.156Z,0.20
2023-11-18T13:00:12.621Z,0.15
2023-11-18T13:02:48.859Z,0.38
2023-11-18T13:05:26.128Z,0.35
2023-11-18T13:08:03.065Z,0.35
2023-11-18T13:10:39.325Z,0.50
2023-11-18T13:13:18.905Z,0.38
2023-11-18T13:15:55.533Z,0.50
2023-11-18T13:18:31.478Z,0.47
2023-11-18T13:23:43.302Z,0.43
2023-11-18T13:26:20.680Z,0.28
2023-11-18T13:28:56.864Z,0.43
2023-11-18T13:31:32.812Z,0.60
2023-11-18T13:34:08.728Z,0.43
2023-11-18T13:39:24.332Z,0.43
2023-11-18T13:42:02.764Z,0.50
2023-11-18T13:44:44.269Z,0.40
2023-11-18T13:47:26.474Z,0.40
2023-11-18T13:50:03.061Z,0.30
2023-11-18T13:52:40.340Z,0.40
2023-11-18T13:55:26.853Z,0.10
2023-11-18T13:58:04.301Z,0.22
2023-11-18T14:00:40.208Z,0.30
2023-11-18T14:05:56.829Z,0.40
2023-11-18T14:08:34.580Z,0.20
2023-11-18T14:11:15.103Z,0.50
2023-11-18T14:13:54.871Z,0.40
2023-11-18T14:16:30.889Z,0.50
2023-11-18T14:19:09.116Z,0.50
2023-11-18T14:21:45.753Z,0.47
2023-11-18T14:24:24.364Z,0.50
2023-11-18T14:27:00.352Z,0.32
2023-11-18T14:29:40.063Z,0.50
2023-11-18T14:32:16.087Z,0.47
2023-11-18T14:37:28.117Z,0.40
2023-11-18T14:40:04.083Z,0.35
2023-11-18T14:45:17.664Z,0.40
2023-11-18T14:47:54.370Z,0.50
2023-11-18T14:50:30.340Z,0.75
2023-11-18T14:55:43.414Z,0.55
2023-11-18T14:58:19.487Z,0.30
2023-11-18T15:00:58.239Z,0.80
2023-11-18T15:03:34.662Z,0.40
2023-11-18T15:06:12.966Z,0.50
2023-11-18T15:08:48.942Z,0.40
2023-11-18T15:11:28.325Z,0.30
2023-11-18T15:14:09.086Z,0.32
2023-11-18T15:16:45.102Z,0.40
2023-11-18T15:21:56.761Z,0.50
2023-11-18T15:24:33.619Z,0.25
2023-11-18T15:27:09.592Z,0.50
2023-11-18T15:32:28.077Z,0.40
2023-11-18T15:35:04.033Z,0.40
2023-11-18T15:40:27.058Z,0.40
2023-11-18T15:43:03.176Z,0.30
2023-11-18T15:45:39.093Z,0.20
2023-11-18T15:48:16.190Z,0.50
2023-11-18T15:50:52.150Z,0.40
2023-11-18T15:53:29.317Z,0.20
2023-11-18T15:56:06.696Z,0.40
2023-11-18T15:58:42.912Z,0.40
2023-11-18T16:01:18.944Z,0.47
2023-11-18T16:03:55.007Z,0.40
2023-11-18T16:06:31.049Z,0.30
2023-11-18T16:11:43.900Z,0.50
2023-11-18T16:14:22.304Z,0.30
2023-11-18T16:16:59.061Z,0.50
2023-11-18T16:19:34.971Z,0.75
2023-11-18T16:22:10.794Z,0.40
2023-11-18T16:24:47.957Z,0.50
2023-11-18T16:27:23.872Z,0.60
2023-11-18T16:29:59.786Z,0.70
2023-11-18T16:32:35.762Z,0.40
2023-11-18T16:37:52.857Z,0.60
2023-11-18T16:40:28.863Z,0.90
2023-11-18T16:45:43.405Z,2.03
2023-11-18T16:48:19.418Z,2.10
2023-11-18T16:53:32.478Z,1.73
2023-11-18T16:56:09.937Z,1.67
2023-11-18T16:58:45.969Z,0.90
2023-11-18T17:01:22.435Z,0.70
2023-11-18T17:03:58.437Z,0.38
2023-11-18T17:09:10.321Z,0.70
2023-11-18T17:11:46.935Z,0.70
2023-11-18T17:14:24.235Z,0.70
2023-11-18T17:17:00.586Z,1.20
2023-11-18T17:19:38.638Z,1.45
2023-11-18T17:22:14.967Z,1.30
2023-11-18T17:24:50.940Z,0.85
2023-11-18T17:27:27.090Z,0.40
2023-11-18T17:30:05.013Z,0.70
2023-11-18T17:32:42.381Z,0.52
2023-11-18T17:35:20.357Z,0.68
2023-11-18T17:37:56.460Z,0.65
2023-11-18T17:40:32.405Z,0.50
2023-11-18T17:43:09.522Z,0.43
2023-11-18T17:45:45.864Z,0.70
2023-11-18T17:48:21.897Z,1.27
2023-11-18T17:50:59.910Z,0.70
2023-11-18T17:53:40.459Z,0.60
2023-11-18T17:56:18.695Z,0.63
2023-11-18T17:58:54.981Z,0.60
2023-11-18T18:01:30.977Z,0.32
2023-11-18T18:04:08.712Z,0.50
2023-11-18T18:06:44.999Z,0.68
2023-11-18T18:11:57.552Z,0.70
2023-11-18T18:14:33.485Z,0.60
2023-11-18T18:17:09.793Z,0.55
2023-11-18T18:19:46.648Z,0.40
2023-11-18T18:22:22.630Z,0.50
2023-11-18T18:24:58.682Z,0.50
2023-11-18T18:27:35.880Z,0.77
2023-11-18T18:30:12.793Z,0.38
2023-11-18T18:32:51.442Z,1.15
2023-11-18T18:35:27.785Z,0.75
2023-11-18T18:40:39.972Z,0.60
2023-11-18T18:43:16.168Z,0.70
2023-11-18T18:45:52.117Z,0.90
2023-11-18T18:48:28.215Z,0.68
2023-11-18T18:51:06.366Z,1.00
2023-11-18T18:53:42.448Z,1.10
2023-11-18T18:58:54.344Z,0.90
2023-11-18T19:04:06.855Z,0.70
2023-11-18T19:06:43.072Z,0.73
2023-11-18T19:11:55.762Z,0.60
2023-11-18T19:14:31.671Z,0.80
2023-11-18T19:19:44.104Z,0.60
2023-11-18T19:22:20.001Z,0.73
2023-11-18T19:24:56.360Z,0.63
2023-11-18T19:27:32.301Z,0.82
2023-11-18T19:30:10.243Z,0.77
2023-11-18T19:32:47.321Z,1.10
2023-11-18T19:35:23.975Z,0.88
2023-11-18T19:38:01.196Z,0.98
2023-11-18T19:40:38.652Z,1.10
2023-11-18T19:45:51.981Z,1.35
2023-11-18T19:48:28.212Z,1.77
2023-11-18T19:53:40.481Z,1.50
2023-11-18T19:58:53.850Z,1.77
2023-11-18T20:01:29.937Z,2.30
2023-11-18T20:04:07.757Z,2.28
2023-11-18T20:06:43.784Z,2.38
2023-11-18T20:09:19.740Z,1.98
2023-11-18T20:12:04.646Z,2.50
2023-11-18T20:14:41.388Z,2.40
2023-11-18T20:17:17.343Z,1.95
2023-11-18T20:19:54.207Z,2.63
2023-11-18T20:22:30.150Z,2.03
2023-11-18T20:25:09.086Z,2.33
2023-11-18T20:27:45.001Z,2.13
2023-11-18T20:30:20.948Z,2.47
2023-11-18T20:32:57.478Z,1.90
2023-11-18T20:35:33.647Z,2.53
2023-11-18T20:38:09.549Z,2.38
2023-11-18T20:40:46.002Z,2.10
2023-11-18T20:43:21.884Z,2.30
2023-11-18T20:45:58.496Z,2.50
2023-11-18T20:48:34.568Z,2.35
2023-11-18T20:51:11.097Z,2.83
2023-11-18T20:53:46.978Z,2.20
2023-11-18T20:56:23.634Z,2.45
2023-11-18T20:59:00.244Z,1.92
2023-11-18T21:01:37.699Z,2.03
2023-11-18T21:04:13.752Z,2.15
2023-11-18T21:06:50.214Z,2.20
2023-11-18T21:09:26.786Z,2.30
2023-11-18T21:12:17.573Z,1.80
2023-11-18T21:14:56.365Z,2.40
2023-11-18T21:17:32.972Z,1.70
2023-11-18T21:20:14.448Z,1.67
2023-11-18T21:22:54.253Z,1.60
2023-11-18T21:25:31.979Z,1.80
2023-11-18T21:28:08.340Z,1.40
2023-11-18T21:30:44.630Z,0.70
2023-11-18T21:33:22.751Z,0.80
2023-11-18T21:35:58.864Z,0.90
2023-11-18T21:38:34.998Z,0.93
2023-11-18T21:43:47.248Z,0.30
2023-11-18T21:46:25.230Z,0.30
2023-11-18T21:49:01.195Z,0.10
2023-11-18T21:51:37.376Z,0.20
2023-11-18T21:54:14.210Z,0.20
2023-11-18T21:56:50.107Z,0.35
2023-11-18T21:59:27.565Z,0.20
2023-11-18T22:02:04.144Z,0.30
2023-11-18T22:04:40.562Z,0.20
2023-11-18T22:07:16.626Z,0.25
2023-11-18T22:09:53.233Z,0.30
2023-11-18T22:12:31.677Z,0.20
2023-11-18T22:15:08.157Z,0.73
2023-11-18T22:17:44.546Z,0.47
2023-11-18T22:20:26.277Z,0.20
2023-11-18T22:23:02.652Z,0.40
2023-11-18T22:25:38.706Z,0.30
2023-11-18T22:28:14.986Z,0.20
2023-11-18T22:30:51.799Z,0.20
2023-11-18T22:33:27.786Z,0.20
2023-11-18T22:36:08.302Z,0.30
2023-11-18T22:38:44.177Z,0.40
2023-11-18T22:43:56.851Z,0.50
2023-11-18T22:46:34.265Z,0.20
2023-11-18T22:49:11.868Z,0.30
2023-11-18T22:51:47.730Z,0.30
2023-11-18T22:54:23.808Z,0.47
2023-11-18T22:56:59.694Z,0.50
2023-11-18T23:02:16.018Z,0.20
2023-11-18T23:04:52.085Z,0.25
2023-11-18T23:07:27.967Z,0.25
2023-11-18T23:12:44.367Z,0.40
2023-11-18T23:17:58.737Z,0.38
2023-11-18T23:20:35.344Z,0.30
2023-11-18T23:23:13.432Z,0.40
2023-11-18T23:25:49.493Z,0.50
2023-11-18T23:28:25.584Z,0.50
2023-11-18T23:31:04.252Z,0.57
2023-11-18T23:33:40.799Z,0.30
2023-11-18T23:36:17.131Z,0.30
2023-11-18T23:39:02.273Z,0.35
2023-11-18T23:41:39.437Z,0.40
2023-11-18T23:46:51.303Z,0.25
2023-11-18T23:49:28.478Z,0.40
2023-11-18T23:52:04.368Z,0.40
2023-11-18T23:57:16.365Z,0.30
2023-11-18T23:59:52.604Z,0.28
